Aérodrome :
LOGIN :

S'inscrire | Disclaimer

   EN    FR    IT 

 










Légende :    VFR   VFR Marginal   IFR   IFR Intensif   IFR Très Intensif
Visi : 
Plafond : 
>= 8 km
>= 3000ft
5 à 8 km
1000 à 3000 ft
1500m à 5 km
500 à 1000 ft
800 à 1500m
200 à 500 ft
< 800m
< 200 ft
Symboles :   Orages  Brouillard  Fortes neiges  Fortes précipitations  Vent > 20 kt
SIGMETs :   Divers  Orages  Givrage  Turbulence  Onde Orograph.  Cendres Volcan.






- Altitude de l'aérodrome : 407 ft


EGDM - MoD Boscombe Down Amesbury

DERNIER METAR :
  • 241720Z 26022KT 9999 BKN018 SCT031 BKN180 11/07 Q1005 NOSIG RMK WHT WHT

METARs EXPIRÉS :
  • 241650Z 26019KT 9999 BKN017 SCT030 BKN200 11/09 Q1005 NOSIG RMK WHT WHT
  • 241621Z 26023KT 9999 BKN015 BKN030 BKN250 11/09 Q1005 NOSIG RMK WHT WHT
  • 241550Z 25021KT 9999 FEW008 BKN013 BKN020 11/10 Q1005 BECMG BKN015 RMK GRN BECMG WHT
  • 241520Z 24017KT 9999 BKN008 OVC015 11/10 Q1005 TEMPO 6000 -RADZ RMK GRN TEMPO GRN
  • 241450Z 23017KT 9999 -RADZ BKN008 OVC015 11/10 Q1005 NOSIG RMK GRN GRN

TAF COR TAF EGDM
Valide du 24 à 15h jusqu'au 24 à 19h UTC


241420Z 2415/2419 24018G28KT 9999 BKN009
TEMPO 2415/2417 6000 -RA
PROB40
TEMPO 2415/2417 3500 RADZ BKN006
BECMG 2416/2419 27015G25KT BKN025



MET'MAP, la Météo Aéronautique d'un coup d'oeil ! - Copyright ORBIFLY Décembre 2007 - Disclaimer

ORBIFLY MET'MAP TEAM :

Programmation & Développement : Alexandra Zaïnal
Sur une idée originale de : Baudouin d'Aumeries
Assistance à la programmation : Marc-Olivier Méhu
Soutien technique & logistique : Manuel Goepfert

Contact : metmap@orbifly.com




SOURCES & CREDITS :

   NOAA